sensor_id;sensor_type;location;lat;lon;timestamp;pressure;altitude;pressure_sealevel;temperature;humidity
7337;BME280;54510;42.016;23.098;2023-08-06T00:00:45;-21840.97;;;25.88;69.75
7337;BME280;54510;42.016;23.098;2023-08-06T00:03:10;-21838.94;;;25.81;69.67
7337;BME280;54510;42.016;23.098;2023-08-06T00:05:36;-21837.19;;;25.74;70.31
7337;BME280;54510;42.016;23.098;2023-08-06T00:08:01;-21834.88;;;25.66;70.71
7337;BME280;54510;42.016;23.098;2023-08-06T00:10:27;-21832.53;;;25.57;70.41
7337;BME280;54510;42.016;23.098;2023-08-06T00:12:53;-21831.31;;;25.52;70.83
7337;BME280;54510;42.016;23.098;2023-08-06T00:15:18;-21833.50;;;25.61;70.51
7337;BME280;54510;42.016;23.098;2023-08-06T00:17:44;-21831.47;;;25.53;69.88
7337;BME280;54510;42.016;23.098;2023-08-06T00:20:09;-21831.31;;;25.52;70.23
7337;BME280;54510;42.016;23.098;2023-08-06T00:22:36;-21829.00;;;25.44;70.23
7337;BME280;54510;42.016;23.098;2023-08-06T00:25:03;-21824.09;;;25.26;70.75
7337;BME280;54510;42.016;23.098;2023-08-06T00:27:29;-21823.97;;;25.25;69.95
7337;BME280;54510;42.016;23.098;2023-08-06T00:29:55;-21826.16;;;25.33;70.66
7337;BME280;54510;42.016;23.098;2023-08-06T00:32:21;-21825.59;;;25.31;70.34
7337;BME280;54510;42.016;23.098;2023-08-06T00:34:47;-21829.28;;;25.45;70.10
7337;BME280;54510;42.016;23.098;2023-08-06T00:37:17;-21831.31;;;25.52;70.37
7337;BME280;54510;42.016;23.098;2023-08-06T00:39:43;-21830.66;;;25.50;70.77
7337;BME280;54510;42.016;23.098;2023-08-06T00:42:09;-21830.66;;;25.50;70.57
7337;BME280;54510;42.016;23.098;2023-08-06T00:44:35;-21831.59;;;25.53;70.57
7337;BME280;54510;42.016;23.098;2023-08-06T00:47:01;-21834.88;;;25.66;71.17
7337;BME280;54510;42.016;23.098;2023-08-06T00:49:27;-21836.63;;;25.72;69.20
7337;BME280;54510;42.016;23.098;2023-08-06T00:51:52;-21835.69;;;25.69;70.00
7337;BME280;54510;42.016;23.098;2023-08-06T00:54:18;-21833.50;;;25.61;70.68
7337;BME280;54510;42.016;23.098;2023-08-06T00:56:44;-21832.41;;;25.56;70.87
7337;BME280;54510;42.016;23.098;2023-08-06T00:59:11;-21832.97;;;25.59;70.65
7337;BME280;54510;42.016;23.098;2023-08-06T01:01:37;-21830.91;;;25.51;70.94
7337;BME280;54510;42.016;23.098;2023-08-06T01:04:03;-21830.09;;;25.48;71.29
7337;BME280;54510;42.016;23.098;2023-08-06T01:06:48;-21830.22;;;25.48;71.46
7337;BME280;54510;42.016;23.098;2023-08-06T01:14:41;-21822.34;;;25.19;71.67
7337;BME280;54510;42.016;23.098;2023-08-06T01:17:12;-21829.81;;;25.47;72.67
7337;BME280;54510;42.016;23.098;2023-08-06T01:19:37;-21831.59;;;25.53;72.00
7337;BME280;54510;42.016;23.098;2023-08-06T01:22:03;-21828.31;;;25.41;72.31
7337;BME280;54510;42.016;23.098;2023-08-06T01:24:29;-21830.38;;;25.49;70.47
7337;BME280;54510;42.016;23.098;2023-08-06T01:27:03;-21827.66;;;25.39;71.15
7337;BME280;54510;42.016;23.098;2023-08-06T01:29:39;-21831.88;;;25.54;71.53
7337;BME280;54510;42.016;23.098;2023-08-06T01:32:08;-21829.41;;;25.45;71.81
7337;BME280;54510;42.016;23.098;2023-08-06T01:34:39;-21832.81;;;25.58;73.44
7337;BME280;54510;42.016;23.098;2023-08-06T01:37:05;-21836.09;;;25.70;73.76
7337;BME280;54510;42.016;23.098;2023-08-06T01:39:33;-21835.13;;;25.67;73.70
7337;BME280;54510;42.016;23.098;2023-08-06T01:41:59;-21834.88;;;25.66;74.29
7337;BME280;54510;42.016;23.098;2023-08-06T01:44:24;-21828.47;;;25.42;74.90
7337;BME280;54510;42.016;23.098;2023-08-06T01:46:49;-21812.81;;;24.84;76.76
7337;BME280;54510;42.016;23.098;2023-08-06T01:49:15;-21813.22;;;24.85;76.82
7337;BME280;54510;42.016;23.098;2023-08-06T01:51:40;-21815.13;;;24.92;78.86
7337;BME280;54510;42.016;23.098;2023-08-06T01:54:05;-21819.06;;;25.07;77.75
7337;BME280;54510;42.016;23.098;2023-08-06T01:56:31;-21814.31;;;24.89;77.33
7337;BME280;54510;42.016;23.098;2023-08-06T01:58:56;-21812.13;;;24.81;77.01
7337;BME280;54510;42.016;23.098;2023-08-06T02:01:22;-21807.91;;;24.65;77.12
7337;BME280;54510;42.016;23.098;2023-08-06T02:03:47;-21811.03;;;24.77;76.38
7337;BME280;54510;42.016;23.098;2023-08-06T02:06:13;-21833.50;;;25.61;74.13
7337;BME280;54510;42.016;23.098;2023-08-06T02:08:38;-21842.34;;;25.93;74.13
7337;BME280;54510;42.016;23.098;2023-08-06T02:11:05;-21845.47;;;26.05;72.57
7337;BME280;54510;42.016;23.098;2023-08-06T02:13:30;-21845.19;;;26.04;71.09
7337;BME280;54510;42.016;23.098;2023-08-06T02:15:56;-21844.25;;;26.01;71.57
7337;BME280;54510;42.016;23.098;2023-08-06T02:18:21;-21846.41;;;26.09;72.15
7337;BME280;54510;42.016;23.098;2023-08-06T02:20:57;-21848.06;;;26.15;72.46
7337;BME280;54510;42.016;23.098;2023-08-06T02:23:24;-21849.53;;;26.20;71.83
7337;BME280;54510;42.016;23.098;2023-08-06T02:26:00;-21849.28;;;26.19;71.63
7337;BME280;54510;42.016;23.098;2023-08-06T02:28:25;-21849.53;;;26.20;71.83
7337;BME280;54510;42.016;23.098;2023-08-06T02:30:51;-21843.84;;;25.99;70.74
7337;BME280;54510;42.016;23.098;2023-08-06T02:33:17;-21852.00;;;26.29;69.78
7337;BME280;54510;42.016;23.098;2023-08-06T02:35:42;-21853.09;;;26.33;69.09
7337;BME280;54510;42.016;23.098;2023-08-06T02:38:07;-21848.06;;;26.15;70.07
7337;BME280;54510;42.016;23.098;2023-08-06T02:40:33;-21848.59;;;26.17;70.23
7337;BME280;54510;42.016;23.098;2023-08-06T02:42:58;-21847.91;;;26.14;69.77
7337;BME280;54510;42.016;23.098;2023-08-06T02:45:23;-21844.50;;;26.02;70.58
7337;BME280;54510;42.016;23.098;2023-08-06T02:47:49;-21841.66;;;25.91;70.31
7337;BME280;54510;42.016;23.098;2023-08-06T02:50:14;-21840.03;;;25.85;69.76
7337;BME280;54510;42.016;23.098;2023-08-06T02:52:40;-21841.81;;;25.91;70.22
7337;BME280;54510;42.016;23.098;2023-08-06T02:55:06;-21842.47;;;25.94;70.96
7337;BME280;54510;42.016;23.098;2023-08-06T02:57:31;-21835.81;;;25.69;70.50
7337;BME280;54510;42.016;23.098;2023-08-06T02:59:58;-21844.66;;;26.02;70.83
7337;BME280;54510;42.016;23.098;2023-08-06T03:02:23;-21849.13;;;26.19;70.44
7337;BME280;54510;42.016;23.098;2023-08-06T03:04:49;-21847.91;;;26.14;70.10
7337;BME280;54510;42.016;23.098;2023-08-06T03:07:14;-21841.66;;;25.91;70.68
7337;BME280;54510;42.016;23.098;2023-08-06T03:09:39;-21829.28;;;25.45;72.43
7337;BME280;54510;42.016;23.098;2023-08-06T03:12:05;-21827.66;;;25.39;73.14
7337;BME280;54510;42.016;23.098;2023-08-06T03:14:31;-21834.88;;;25.66;73.26
7337;BME280;54510;42.016;23.098;2023-08-06T03:16:56;-21840.56;;;25.87;72.46
7337;BME280;54510;42.016;23.098;2023-08-06T03:19:21;-21841.13;;;25.89;71.45
7337;BME280;54510;42.016;23.098;2023-08-06T03:21:47;-21843.84;;;25.99;71.08
7337;BME280;54510;42.016;23.098;2023-08-06T03:24:14;-21848.59;;;26.17;70.46
7337;BME280;54510;42.016;23.098;2023-08-06T03:26:39;-21847.25;;;26.12;70.49
7337;BME280;54510;42.016;23.098;2023-08-06T03:29:04;-21849.13;;;26.19;71.39
7337;BME280;54510;42.016;23.098;2023-08-06T03:31:30;-21847.09;;;26.11;71.03
7337;BME280;54510;42.016;23.098;2023-08-06T03:33:55;-21847.25;;;26.12;70.95
7337;BME280;54510;42.016;23.098;2023-08-06T03:36:21;-21844.66;;;26.02;70.37
7337;BME280;54510;42.016;23.098;2023-08-06T03:38:47;-21847.91;;;26.14;70.29
7337;BME280;54510;42.016;23.098;2023-08-06T03:41:12;-21848.06;;;26.15;70.28
7337;BME280;54510;42.016;23.098;2023-08-06T03:43:38;-21847.09;;;26.11;70.37
7337;BME280;54510;42.016;23.098;2023-08-06T03:46:03;-21848.59;;;26.17;70.36
7337;BME280;54510;42.016;23.098;2023-08-06T03:48:29;-21849.28;;;26.19;70.29
7337;BME280;54510;42.016;23.098;2023-08-06T03:50:54;-21846.81;;;26.10;70.58
7337;BME280;54510;42.016;23.098;2023-08-06T03:53:19;-21848.06;;;26.15;70.55
7337;BME280;54510;42.016;23.098;2023-08-06T03:55:45;-21847.25;;;26.12;70.60
7337;BME280;54510;42.016;23.098;2023-08-06T03:58:10;-21844.50;;;26.02;70.27
7337;BME280;54510;42.016;23.098;2023-08-06T04:00:35;-21842.06;;;25.92;70.61
7337;BME280;54510;42.016;23.098;2023-08-06T04:03:01;-21840.31;;;25.86;71.61
7337;BME280;54510;42.016;23.098;2023-08-06T04:05:26;-21843.84;;;25.99;70.50
7337;BME280;54510;42.016;23.098;2023-08-06T04:07:52;-21848.59;;;26.17;69.83
7337;BME280;54510;42.016;23.098;2023-08-06T04:10:17;-21848.31;;;26.16;69.06
7337;BME280;54510;42.016;23.098;2023-08-06T04:12:43;-21845.06;;;26.04;70.46
7337;BME280;54510;42.016;23.098;2023-08-06T04:15:08;-21846.56;;;26.09;70.20
7337;BME280;54510;42.016;23.098;2023-08-06T04:17:34;-21852.00;;;26.29;69.84
7337;BME280;54510;42.016;23.098;2023-08-06T04:19:59;-21854.44;;;26.39;68.85
7337;BME280;54510;42.016;23.098;2023-08-06T04:22:25;-21854.31;;;26.38;68.80
7337;BME280;54510;42.016;23.098;2023-08-06T04:24:50;-21855.00;;;26.41;68.86
7337;BME280;54510;42.016;23.098;2023-08-06T04:27:17;-21854.59;;;26.39;69.02
7337;BME280;54510;42.016;23.098;2023-08-06T04:29:43;-21851.72;;;26.28;68.83
7337;BME280;54510;42.016;23.098;2023-08-06T04:32:09;-21858.38;;;26.53;68.23
7337;BME280;54510;42.016;23.098;2023-08-06T04:34:36;-21855.66;;;26.43;67.60
7337;BME280;54510;42.016;23.098;2023-08-06T04:37:02;-21854.03;;;26.37;68.50
7337;BME280;54510;42.016;23.098;2023-08-06T04:39:28;-21857.84;;;26.51;67.25
7337;BME280;54510;42.016;23.098;2023-08-06T04:41:57;-21859.47;;;26.57;67.20
7337;BME280;54510;42.016;23.098;2023-08-06T04:44:23;-21863.13;;;26.71;66.32
7337;BME280;54510;42.016;23.098;2023-08-06T04:46:48;-21865.59;;;26.80;66.06
7337;BME280;54510;42.016;23.098;2023-08-06T04:49:14;-21864.75;;;26.77;66.28
7337;BME280;54510;42.016;23.098;2023-08-06T04:51:39;-21865.44;;;26.80;66.50
7337;BME280;54510;42.016;23.098;2023-08-06T04:54:04;-21866.66;;;26.84;66.75
7337;BME280;54510;42.016;23.098;2023-08-06T04:56:30;-21864.63;;;26.77;67.23
7337;BME280;54510;42.016;23.098;2023-08-06T04:58:55;-21858.66;;;26.54;66.72
7337;BME280;54510;42.016;23.098;2023-08-06T05:01:21;-21863.28;;;26.71;67.16
7337;BME280;54510;42.016;23.098;2023-08-06T05:03:47;-21867.34;;;26.87;66.58
7337;BME280;54510;42.016;23.098;2023-08-06T05:06:12;-21868.84;;;26.92;65.57
7337;BME280;54510;42.016;23.098;2023-08-06T05:08:38;-21869.94;;;26.96;65.42
7337;BME280;54510;42.016;23.098;2023-08-06T05:11:03;-21873.06;;;27.08;65.70
7337;BME280;54510;42.016;23.098;2023-08-06T05:13:29;-21872.38;;;27.05;65.22
7337;BME280;54510;42.016;23.098;2023-08-06T05:15:54;-21871.81;;;27.03;64.72
7337;BME280;54510;42.016;23.098;2023-08-06T05:18:20;-21874.53;;;27.13;64.66
7337;BME280;54510;42.016;23.098;2023-08-06T05:20:46;-21872.38;;;27.05;63.96
7337;BME280;54510;42.016;23.098;2023-08-06T05:23:11;-21870.59;;;26.99;64.45
7337;BME280;54510;42.016;23.098;2023-08-06T05:25:37;-21863.81;;;26.73;64.46
7337;BME280;54510;42.016;23.098;2023-08-06T05:28:03;-21868.84;;;26.92;64.23
7337;BME280;54510;42.016;23.098;2023-08-06T05:30:29;-21871.16;;;27.01;64.61
7337;BME280;54510;42.016;23.098;2023-08-06T05:32:54;-21867.75;;;26.88;65.66
7337;BME280;54510;42.016;23.098;2023-08-06T05:35:21;-21864.63;;;26.77;65.56
7337;BME280;54510;42.016;23.098;2023-08-06T05:37:46;-21860.56;;;26.61;66.48
7337;BME280;54510;42.016;23.098;2023-08-06T05:40:11;-21867.88;;;26.89;66.68
7337;BME280;54510;42.016;23.098;2023-08-06T05:42:37;-21859.88;;;26.59;67.19
7337;BME280;54510;42.016;23.098;2023-08-06T05:45:02;-21856.88;;;26.48;67.93
7337;BME280;54510;42.016;23.098;2023-08-06T05:47:28;-21860.41;;;26.61;67.69
7337;BME280;54510;42.016;23.098;2023-08-06T05:49:53;-21873.47;;;27.09;66.74
7337;BME280;54510;42.016;23.098;2023-08-06T05:52:18;-21877.53;;;27.25;65.16
7337;BME280;54510;42.016;23.098;2023-08-06T05:54:44;-21868.84;;;26.92;64.79
7337;BME280;54510;42.016;23.098;2023-08-06T05:57:09;-21866.53;;;26.84;65.32
7337;BME280;54510;42.016;23.098;2023-08-06T05:59:34;-21863.00;;;26.70;64.78
7337;BME280;54510;42.016;23.098;2023-08-06T06:02:00;-21859.75;;;26.58;65.53
7337;BME280;54510;42.016;23.098;2023-08-06T06:04:26;-21868.16;;;26.90;66.87
7337;BME280;54510;42.016;23.098;2023-08-06T06:06:51;-21879.69;;;27.33;65.85
7337;BME280;54510;42.016;23.098;2023-08-06T06:09:16;-21869.13;;;26.93;64.82
7337;BME280;54510;42.016;23.098;2023-08-06T06:11:42;-21867.75;;;26.88;64.60
7337;BME280;54510;42.016;23.098;2023-08-06T06:14:07;-21868.97;;;26.93;65.02
7337;BME280;54510;42.016;23.098;2023-08-06T06:16:34;-21878.06;;;27.27;65.25
7337;BME280;54510;42.016;23.098;2023-08-06T06:18:59;-21879.44;;;27.32;63.59
7337;BME280;54510;42.016;23.098;2023-08-06T06:21:25;-21886.63;;;27.59;63.74
7337;BME280;54510;42.016;23.098;2023-08-06T06:23:50;-21891.91;;;27.78;63.35
7337;BME280;54510;42.016;23.098;2023-08-06T06:26:17;-21898.56;;;28.03;62.52
7337;BME280;54510;42.016;23.098;2023-08-06T06:28:43;-21898.81;;;28.04;59.80
7337;BME280;54510;42.016;23.098;2023-08-06T06:31:08;-21906.00;;;28.31;60.24
7337;BME280;54510;42.016;23.098;2023-08-06T06:33:34;-21909.66;;;28.45;59.57
7337;BME280;54510;42.016;23.098;2023-08-06T06:36:00;-21913.84;;;28.60;59.76
7337;BME280;54510;42.016;23.098;2023-08-06T06:38:28;-21917.25;;;28.73;58.61
7337;BME280;54510;42.016;23.098;2023-08-06T06:40:54;-21901.13;;;28.13;59.65
7337;BME280;54510;42.016;23.098;2023-08-06T06:43:20;-21914.13;;;28.61;57.99
7337;BME280;54510;42.016;23.098;2023-08-06T06:45:45;-21925.38;;;29.03;57.43
7337;BME280;54510;42.016;23.098;2023-08-06T06:48:10;-21922.13;;;28.91;57.00
7337;BME280;54510;42.016;23.098;2023-08-06T06:50:36;-21918.59;;;28.78;56.90
7337;BME280;54510;42.016;23.098;2023-08-06T06:53:01;-21906.28;;;28.32;57.25
7337;BME280;54510;42.016;23.098;2023-08-06T06:55:27;-21905.19;;;28.28;58.81
7337;BME280;54510;42.016;23.098;2023-08-06T06:57:52;-21917.78;;;28.75;57.97
7337;BME280;54510;42.016;23.098;2023-08-06T07:00:18;-21918.19;;;28.77;57.97
7337;BME280;54510;42.016;23.098;2023-08-06T07:02:43;-21914.66;;;28.63;57.03
7337;BME280;54510;42.016;23.098;2023-08-06T07:05:09;-21921.72;;;28.90;57.52
7337;BME280;54510;42.016;23.098;2023-08-06T07:07:34;-21923.88;;;28.98;56.84
7337;BME280;54510;42.016;23.098;2023-08-06T07:10:01;-21923.34;;;28.96;56.41
7337;BME280;54510;42.016;23.098;2023-08-06T07:12:26;-21923.06;;;28.95;56.76
7337;BME280;54510;42.016;23.098;2023-08-06T07:14:51;-21922.53;;;28.93;56.20
7337;BME280;54510;42.016;23.098;2023-08-06T07:17:17;-21915.75;;;28.67;56.96
7337;BME280;54510;42.016;23.098;2023-08-06T07:19:42;-21923.59;;;28.97;56.34
7337;BME280;54510;42.016;23.098;2023-08-06T07:22:07;-21929.03;;;29.17;56.54
7337;BME280;54510;42.016;23.098;2023-08-06T07:24:33;-21933.50;;;29.34;56.50
7337;BME280;54510;42.016;23.098;2023-08-06T07:26:58;-21931.06;;;29.25;55.08
7337;BME280;54510;42.016;23.098;2023-08-06T07:29:23;-21931.84;;;29.28;55.56
7337;BME280;54510;42.016;23.098;2023-08-06T07:31:49;-21929.84;;;29.20;55.44
7337;BME280;54510;42.016;23.098;2023-08-06T07:34:15;-21934.44;;;29.37;55.87
7337;BME280;54510;42.016;23.098;2023-08-06T07:36:44;-21934.31;;;29.37;55.01
7337;BME280;54510;42.016;23.098;2023-08-06T07:39:10;-21937.53;;;29.49;54.49
7337;BME280;54510;42.016;23.098;2023-08-06T07:41:35;-21940.53;;;29.60;53.58
7337;BME280;54510;42.016;23.098;2023-08-06T07:44:01;-21927.81;;;29.13;53.81
7337;BME280;54510;42.016;23.098;2023-08-06T07:46:27;-21928.75;;;29.16;52.34
7337;BME280;54510;42.016;23.098;2023-08-06T07:48:52;-21935.25;;;29.40;52.21
7337;BME280;54510;42.016;23.098;2023-08-06T07:51:17;-21937.94;;;29.51;51.73
7337;BME280;54510;42.016;23.098;2023-08-06T07:53:43;-21947.41;;;29.86;51.01
7337;BME280;54510;42.016;23.098;2023-08-06T07:56:08;-21957.41;;;30.23;47.79
7337;BME280;54510;42.016;23.098;2023-08-06T07:58:33;-21964.72;;;30.51;47.67
7337;BME280;54510;42.016;23.098;2023-08-06T08:00:59;-21962.53;;;30.43;49.80
7337;BME280;54510;42.016;23.098;2023-08-06T08:03:24;-21971.59;;;30.77;46.54
7337;BME280;54510;42.016;23.098;2023-08-06T08:05:50;-21964.56;;;30.50;45.81
7337;BME280;54510;42.016;23.098;2023-08-06T08:08:19;-21959.97;;;30.33;46.29
7337;BME280;54510;42.016;23.098;2023-08-06T08:10:44;-21955.66;;;30.17;46.88
7337;BME280;54510;42.016;23.098;2023-08-06T08:13:10;-21956.06;;;30.18;46.91
7337;BME280;54510;42.016;23.098;2023-08-06T08:15:35;-21960.13;;;30.34;46.97
7337;BME280;54510;42.016;23.098;2023-08-06T08:18:01;-21959.31;;;30.31;47.60
7337;BME280;54510;42.016;23.098;2023-08-06T08:20:27;-21964.31;;;30.49;43.75
7337;BME280;54510;42.016;23.098;2023-08-06T08:22:59;-21964.72;;;30.51;45.49
7337;BME280;54510;42.016;23.098;2023-08-06T08:25:24;-21967.69;;;30.62;44.34
7337;BME280;54510;42.016;23.098;2023-08-06T08:27:50;-21966.47;;;30.57;44.39
7337;BME280;54510;42.016;23.098;2023-08-06T08:30:15;-21971.06;;;30.75;43.31
7337;BME280;54510;42.016;23.098;2023-08-06T08:32:40;-21978.06;;;31.01;43.00
7337;BME280;54510;42.016;23.098;2023-08-06T08:35:06;-21968.75;;;30.66;43.48
7337;BME280;54510;42.016;23.098;2023-08-06T08:37:31;-21960.25;;;30.34;42.45
7337;BME280;54510;42.016;23.098;2023-08-06T08:39:57;-21959.44;;;30.31;43.42
7337;BME280;54510;42.016;23.098;2023-08-06T08:42:22;-21966.47;;;30.57;42.33
7337;BME280;54510;42.016;23.098;2023-08-06T08:44:48;-21966.19;;;30.56;41.82
7337;BME280;54510;42.016;23.098;2023-08-06T08:47:14;-21973.63;;;30.84;42.18
7337;BME280;54510;42.016;23.098;2023-08-06T08:49:42;-21966.88;;;30.59;42.13
7337;BME280;54510;42.016;23.098;2023-08-06T08:52:09;-21965.53;;;30.54;42.92
7337;BME280;54510;42.016;23.098;2023-08-06T08:54:38;-21969.56;;;30.69;42.33
7337;BME280;54510;42.016;23.098;2023-08-06T08:57:04;-21966.47;;;30.57;42.40
7337;BME280;54510;42.016;23.098;2023-08-06T08:59:30;-21970.38;;;30.72;41.64
7337;BME280;54510;42.016;23.098;2023-08-06T09:01:55;-21970.09;;;30.71;42.05
7337;BME280;54510;42.016;23.098;2023-08-06T09:04:22;-21976.03;;;30.93;41.12
7337;BME280;54510;42.016;23.098;2023-08-06T09:06:50;-21978.75;;;31.04;41.28
7337;BME280;54510;42.016;23.098;2023-08-06T09:09:26;-21980.50;;;31.10;40.83
7337;BME280;54510;42.016;23.098;2023-08-06T09:11:55;-21986.03;;;31.31;40.07
7337;BME280;54510;42.016;23.098;2023-08-06T09:14:24;-21990.88;;;31.49;40.79
7337;BME280;54510;42.016;23.098;2023-08-06T09:16:51;-21989.53;;;31.44;40.76
7337;BME280;54510;42.016;23.098;2023-08-06T09:19:16;-21995.88;;;31.68;39.05
7337;BME280;54510;42.016;23.098;2023-08-06T09:21:42;-22000.44;;;31.85;37.99
7337;BME280;54510;42.016;23.098;2023-08-06T09:24:08;-22000.31;;;31.85;38.35
7337;BME280;54510;42.016;23.098;2023-08-06T09:26:36;-21994.66;;;31.63;39.00
7337;BME280;54510;42.016;23.098;2023-08-06T09:29:01;-21992.75;;;31.56;38.47
7337;BME280;54510;42.016;23.098;2023-08-06T09:31:50;-21988.03;;;31.38;40.15
7337;BME280;54510;42.016;23.098;2023-08-06T09:34:20;-21973.63;;;30.84;41.35
7337;BME280;54510;42.016;23.098;2023-08-06T09:36:51;-21967.53;;;30.61;42.45
7337;BME280;54510;42.016;23.098;2023-08-06T09:39:21;-21957.81;;;30.25;42.69
7337;BME280;54510;42.016;23.098;2023-08-06T09:41:47;-21953.91;;;30.10;43.09
7337;BME280;54510;42.016;23.098;2023-08-06T09:44:20;-21946.47;;;29.82;45.04
7337;BME280;54510;42.016;23.098;2023-08-06T09:46:55;-21949.84;;;29.95;43.20
7337;BME280;54510;42.016;23.098;2023-08-06T09:49:24;-21943.50;;;29.71;43.31
7337;BME280;54510;42.016;23.098;2023-08-06T09:51:51;-21940.91;;;29.62;44.49
7337;BME280;54510;42.016;23.098;2023-08-06T09:54:17;-21934.44;;;29.37;46.22
7337;BME280;54510;42.016;23.098;2023-08-06T09:56:44;-21941.75;;;29.65;46.91
7337;BME280;54510;42.016;23.098;2023-08-06T09:59:10;-21935.66;;;29.42;47.78
7337;BME280;54510;42.016;23.098;2023-08-06T10:01:38;-21944.16;;;29.74;48.58
7337;BME280;54510;42.016;23.098;2023-08-06T10:04:05;-21940.66;;;29.61;49.83
7337;BME280;54510;42.016;23.098;2023-08-06T10:06:34;-21922.66;;;28.93;51.04
7337;BME280;54510;42.016;23.098;2023-08-06T10:09:05;-21915.63;;;28.67;53.25
7337;BME280;54510;42.016;23.098;2023-08-06T10:11:31;-21914.53;;;28.63;51.88
7337;BME280;54510;42.016;23.098;2023-08-06T10:14:27;-21927.25;;;29.11;49.36
7337;BME280;54510;42.016;23.098;2023-08-06T10:16:54;-21942.00;;;29.66;48.66
7337;BME280;54510;42.016;23.098;2023-08-06T10:19:22;-21942.16;;;29.66;47.65
7337;BME280;54510;42.016;23.098;2023-08-06T10:22:08;-21946.34;;;29.82;48.85
7337;BME280;54510;42.016;23.098;2023-08-06T10:24:55;-21964.72;;;30.51;46.92
7337;BME280;54510;42.016;23.098;2023-08-06T10:30:26;-21984.13;;;31.24;42.64
7337;BME280;54510;42.016;23.098;2023-08-06T10:32:54;-21993.97;;;31.61;42.08
7337;BME280;54510;42.016;23.098;2023-08-06T10:35:41;-21992.50;;;31.55;42.47
7337;BME280;54510;42.016;23.098;2023-08-06T10:38:15;-22000.03;;;31.84;40.66
7337;BME280;54510;42.016;23.098;2023-08-06T10:40:49;-21998.28;;;31.77;40.81
7337;BME280;54510;42.016;23.098;2023-08-06T10:43:32;-21997.22;;;31.73;40.76
7337;BME280;54510;42.016;23.098;2023-08-06T10:45:59;-22012.84;;;32.32;37.00
7337;BME280;54510;42.016;23.098;2023-08-06T10:48:37;-22019.16;;;32.55;37.13
7337;BME280;54510;42.016;23.098;2023-08-06T10:51:07;-22019.44;;;32.56;36.49
7337;BME280;54510;42.016;23.098;2023-08-06T10:53:33;-22026.03;;;32.81;35.61
7337;BME280;54510;42.016;23.098;2023-08-06T10:55:58;-22017.28;;;32.48;36.41
7337;BME280;54510;42.016;23.098;2023-08-06T10:58:24;-22022.13;;;32.67;35.31
7337;BME280;54510;42.016;23.098;2023-08-06T11:00:49;-22019.69;;;32.58;36.26
7337;BME280;54510;42.016;23.098;2023-08-06T11:03:15;-22015.66;;;32.42;36.96
7337;BME280;54510;42.016;23.098;2023-08-06T11:05:40;-22017.94;;;32.51;36.89
7337;BME280;54510;42.016;23.098;2023-08-06T11:08:05;-22020.50;;;32.61;36.71
7337;BME280;54510;42.016;23.098;2023-08-06T11:10:33;-22028.31;;;32.90;36.72
7337;BME280;54510;42.016;23.098;2023-08-06T11:13:03;-22023.34;;;32.71;36.41
7337;BME280;54510;42.016;23.098;2023-08-06T11:15:29;-22026.97;;;32.85;36.28
7337;BME280;54510;42.016;23.098;2023-08-06T11:17:55;-22033.41;;;33.09;35.85
7337;BME280;54510;42.016;23.098;2023-08-06T11:20:21;-22020.22;;;32.60;37.28
7337;BME280;54510;42.016;23.098;2023-08-06T11:22:47;-22022.41;;;32.68;37.03
7337;BME280;54510;42.016;23.098;2023-08-06T11:25:13;-22012.97;;;32.32;36.79
7337;BME280;54510;42.016;23.098;2023-08-06T11:27:38;-22004.09;;;31.99;37.02
7337;BME280;54510;42.016;23.098;2023-08-06T11:30:04;-21996.81;;;31.71;38.27
7337;BME280;54510;42.016;23.098;2023-08-06T11:32:29;-22007.84;;;32.13;38.01
7337;BME280;54510;42.016;23.098;2023-08-06T11:34:55;-22015.41;;;32.41;37.98
7337;BME280;54510;42.016;23.098;2023-08-06T11:37:21;-22028.97;;;32.92;37.33
7337;BME280;54510;42.016;23.098;2023-08-06T11:39:49;-22026.97;;;32.85;36.72
7337;BME280;54510;42.016;23.098;2023-08-06T11:42:15;-22015.66;;;32.42;37.32
7337;BME280;54510;42.016;23.098;2023-08-06T11:44:40;-22031.66;;;33.03;37.37
7337;BME280;54510;42.016;23.098;2023-08-06T11:47:13;-22040.69;;;33.37;35.11
7337;BME280;54510;42.016;23.098;2023-08-06T11:54:40;-22043.09;;;33.46;35.61
7337;BME280;54510;42.016;23.098;2023-08-06T11:57:05;-22043.63;;;33.48;34.67
7337;BME280;54510;42.016;23.098;2023-08-06T11:59:31;-22047.41;;;33.62;34.49
7337;BME280;54510;42.016;23.098;2023-08-06T12:01:57;-22046.19;;;33.57;33.96
7337;BME280;54510;42.016;23.098;2023-08-06T12:04:22;-22049.53;;;33.70;34.38
7337;BME280;54510;42.016;23.098;2023-08-06T12:06:47;-22047.66;;;33.63;34.74
7337;BME280;54510;42.016;23.098;2023-08-06T12:09:13;-22056.78;;;33.97;34.39
7337;BME280;54510;42.016;23.098;2023-08-06T12:11:38;-22061.75;;;34.16;33.64
7337;BME280;54510;42.016;23.098;2023-08-06T12:14:04;-22059.75;;;34.08;33.73
7337;BME280;54510;42.016;23.098;2023-08-06T12:16:29;-22070.63;;;34.49;33.97
7337;BME280;54510;42.016;23.098;2023-08-06T12:18:54;-22078.13;;;34.78;33.21
7337;BME280;54510;42.016;23.098;2023-08-06T12:21:20;-22079.06;;;34.81;33.66
7337;BME280;54510;42.016;23.098;2023-08-06T12:23:45;-22082.81;;;34.96;31.48
7337;BME280;54510;42.016;23.098;2023-08-06T12:26:10;-22085.75;;;35.07;31.38
7337;BME280;54510;42.016;23.098;2023-08-06T12:28:36;-22082.16;;;34.93;31.47
7337;BME280;54510;42.016;23.098;2023-08-06T12:31:02;-22091.00;;;35.27;31.36
7337;BME280;54510;42.016;23.098;2023-08-06T12:33:27;-22083.22;;;34.97;31.07
7337;BME280;54510;42.016;23.098;2023-08-06T12:35:52;-22077.44;;;34.75;31.95
7337;BME280;54510;42.016;23.098;2023-08-06T12:38:22;-22082.81;;;34.96;30.94
7337;BME280;54510;42.016;23.098;2023-08-06T12:40:47;-22084.16;;;35.01;31.46
7337;BME280;54510;42.016;23.098;2023-08-06T12:43:13;-22064.31;;;34.26;31.87
7337;BME280;54510;42.016;23.098;2023-08-06T12:45:38;-22071.94;;;34.55;31.86
7337;BME280;54510;42.016;23.098;2023-08-06T12:48:04;-22080.66;;;34.87;31.43
7337;BME280;54510;42.016;23.098;2023-08-06T12:50:29;-22080.41;;;34.86;30.95
7337;BME280;54510;42.016;23.098;2023-08-06T12:52:55;-22074.09;;;34.63;30.68
7337;BME280;54510;42.016;23.098;2023-08-06T12:55:20;-22079.59;;;34.83;30.68
7337;BME280;54510;42.016;23.098;2023-08-06T12:57:45;-22060.41;;;34.11;32.62
7337;BME280;54510;42.016;23.098;2023-08-06T13:00:11;-22048.06;;;33.64;31.66